Time;durP1;ratioP1;P1;durP2;ratioP2;P2;SDS_P1;SDS_P2;PMS_P1;PMS_P2;Temp;Humidity;BMP_temperature;BMP_pressure;BME280_temperature;BME280_humidity;BME280_pressure;Samples;Min_cycle;Max_cycle;Signal;HPM_P1;HPM_P2
2023/05/01 00:02:07;;;;;;;14.97;6.70;;;;;;;;;;5050948;28;20542;-68
2023/05/01 00:04:32;;;;;;;14.15;7.60;;;;;;;;;;5046726;28;20536;-68
2023/05/01 00:06:57;;;;;;;14.02;6.97;;;;;;;;;;5051160;28;20562;-68
2023/05/01 00:09:22;;;;;;;13.68;7.13;;;;;;;;;;5050881;28;20044;-68
2023/05/01 00:11:48;;;;;;;14.63;7.35;;;;;;;;;;5056332;28;20040;-68
2023/05/01 00:14:13;;;;;;;14.40;7.00;;;;;;;;;;5056112;28;20127;-68
2023/05/01 00:16:38;;;;;;;13.55;6.85;;;;;;;;;;5052578;28;20029;-68
2023/05/01 00:19:03;;;;;;;13.40;7.10;;;;;;;;;;5055328;28;20051;-68
2023/05/01 00:21:29;;;;;;;14.77;6.68;;;;;;;;;;5044167;28;20168;-68
2023/05/01 00:23:55;;;;;;;15.20;7.18;;;;;;;;;;5052146;28;20055;-68
2023/05/01 00:26:20;;;;;;;12.60;6.27;;;;;;;;;;5051918;28;20035;-70
2023/05/01 00:28:45;;;;;;;13.85;6.85;;;;;;;;;;5057045;28;20507;-68
2023/05/01 00:31:10;;;;;;;12.57;6.70;;;;;;;;;;5058244;28;20645;-68
2023/05/01 00:33:35;;;;;;;13.98;7.07;;;;;;;;;;5049374;28;20090;-68
2023/05/01 00:36:00;;;;;;;12.80;6.28;;;;;;;;;;5052629;28;20044;-68
2023/05/01 00:38:26;;;;;;;12.90;6.78;;;;;;;;;;5047943;28;20029;-67
2023/05/01 00:40:51;;;;;;;12.17;6.23;;;;;;;;;;5056976;28;20024;-67
2023/05/01 00:43:16;;;;;;;13.27;6.13;;;;;;;;;;5056281;28;20055;-68
2023/05/01 00:45:42;;;;;;;12.23;6.27;;;;;;;;;;5063003;28;20025;-67
2023/05/01 00:48:08;;;;;;;12.57;6.55;;;;;;;;;;5070095;28;20017;-67
2023/05/01 00:50:33;;;;;;;14.05;6.60;;;;;;;;;;5065812;28;20373;-68
2023/05/01 00:52:58;;;;;;;12.47;6.50;;;;;;;;;;5047278;28;20056;-68
2023/05/01 00:55:25;;;;;;;12.48;6.40;;;;;;;;;;5046200;28;20505;-67
2023/05/01 00:57:50;;;;;;;12.43;6.53;;;;;;;;;;5057378;28;20024;-67
2023/05/01 01:00:18;;;;;;;11.83;5.77;;;;;;;;;;5059383;28;20024;-67
2023/05/01 01:02:43;;;;;;;12.63;6.30;;;;;;;;;;5050633;28;20512;-67
2023/05/01 01:05:08;;;;;;;11.98;6.28;;;;;;;;;;5054789;28;20476;-67
2023/05/01 01:07:54;;;;;;;12.55;6.53;;;;;;;;;;5051049;28;20023;-67
2023/05/01 01:10:29;;;;;;;11.80;6.32;;;;;;;;;;5048924;28;20033;-68
2023/05/01 01:13:03;;;;;;;11.20;6.10;;;;;;;;;;5048047;28;20094;-68
2023/05/01 01:15:32;;;;;;;13.93;6.50;;;;;;;;;;5054027;28;20531;-68
2023/05/01 01:18:07;;;;;;;13.30;6.78;;;;;;;;;;5055043;28;20066;-68
2023/05/01 01:20:37;;;;;;;12.45;6.45;;;;;;;;;;5050683;28;20459;-68
2023/05/01 01:23:12;;;;;;;11.40;6.25;;;;;;;;;;5056843;28;20077;-67
2023/05/01 01:25:53;;;;;;;13.35;6.90;;;;;;;;;;5053193;28;20025;-67
2023/05/01 01:28:38;;;;;;;12.50;6.22;;;;;;;;;;5048860;28;20040;-68
2023/05/01 01:31:03;;;;;;;12.65;6.65;;;;;;;;;;5054617;28;20400;-68
2023/05/01 01:33:31;;;;;;;12.60;5.72;;;;;;;;;;5052248;28;20033;-68
2023/05/01 01:36:00;;;;;;;13.93;6.10;;;;;;;;;;5054844;28;20407;-68
2023/05/01 01:38:30;;;;;;;10.68;6.22;;;;;;;;;;5054914;28;20036;-68
2023/05/01 01:41:06;;;;;;;12.70;6.18;;;;;;;;;;5056208;28;20488;-68
2023/05/01 01:43:37;;;;;;;13.10;6.05;;;;;;;;;;5046663;28;20041;-68
2023/05/01 01:46:04;;;;;;;14.10;6.30;;;;;;;;;;5056367;28;20021;-68
2023/05/01 01:48:30;;;;;;;12.48;6.45;;;;;;;;;;5058693;28;20028;-68
2023/05/01 01:50:57;;;;;;;11.65;6.03;;;;;;;;;;5049921;28;20021;-68
2023/05/01 01:53:24;;;;;;;13.60;6.00;;;;;;;;;;5053213;28;20029;-68
2023/05/01 01:55:50;;;;;;;12.10;6.15;;;;;;;;;;5054235;28;20112;-68
2023/05/01 01:58:17;;;;;;;14.43;6.50;;;;;;;;;;5058748;28;20032;-68
2023/05/01 02:00:44;;;;;;;12.18;5.57;;;;;;;;;;5047022;28;20392;-66
2023/05/01 02:03:09;;;;;;;11.82;5.93;;;;;;;;;;5047119;28;20029;-67
2023/05/01 02:05:35;;;;;;;14.02;6.25;;;;;;;;;;5061750;28;20028;-67
2023/05/01 02:08:01;;;;;;;11.23;5.65;;;;;;;;;;5055054;28;20032;-68
2023/05/01 02:10:26;;;;;;;11.93;6.00;;;;;;;;;;5055688;28;20013;-69
2023/05/01 02:12:53;;;;;;;12.88;6.10;;;;;;;;;;5052749;28;20024;-68
2023/05/01 02:15:19;;;;;;;12.15;6.22;;;;;;;;;;5050805;28;20036;-69
2023/05/01 02:17:45;;;;;;;12.00;5.75;;;;;;;;;;5053649;28;20013;-68
2023/05/01 02:20:11;;;;;;;12.20;6.00;;;;;;;;;;5053552;28;20032;-68
2023/05/01 02:22:37;;;;;;;15.05;6.13;;;;;;;;;;5048402;28;20029;-68
2023/05/01 02:25:03;;;;;;;13.13;6.10;;;;;;;;;;5052858;28;20021;-69
2023/05/01 02:27:33;;;;;;;12.90;6.32;;;;;;;;;;5053946;28;20029;-69
2023/05/01 02:29:59;;;;;;;12.73;6.07;;;;;;;;;;5048842;28;20049;-69
2023/05/01 02:32:25;;;;;;;12.70;6.40;;;;;;;;;;5048930;28;20067;-69
2023/05/01 02:34:50;;;;;;;12.55;6.18;;;;;;;;;;5052290;28;20029;-69
2023/05/01 02:37:15;;;;;;;14.63;7.28;;;;;;;;;;5052830;28;20029;-69
2023/05/01 02:39:41;;;;;;;14.67;6.67;;;;;;;;;;5053081;28;20519;-69
2023/05/01 02:42:08;;;;;;;14.05;6.85;;;;;;;;;;5048724;28;20042;-69
2023/05/01 02:44:54;;;;;;;13.30;6.55;;;;;;;;;;5050809;28;20067;-69
2023/05/01 02:47:21;;;;;;;14.88;6.35;;;;;;;;;;5052212;28;20496;-69
2023/05/01 02:49:47;;;;;;;12.95;5.82;;;;;;;;;;5048995;28;20036;-69
2023/05/01 02:52:13;;;;;;;14.18;6.95;;;;;;;;;;5051985;28;20021;-69
2023/05/01 02:54:38;;;;;;;13.05;6.47;;;;;;;;;;5047958;28;20047;-69
2023/05/01 02:57:04;;;;;;;14.10;6.70;;;;;;;;;;5052538;28;20016;-68
2023/05/01 02:59:29;;;;;;;11.48;5.97;;;;;;;;;;5047393;28;20032;-69
2023/05/01 03:01:54;;;;;;;12.47;6.30;;;;;;;;;;5049198;28;20457;-68
2023/05/01 03:04:19;;;;;;;15.85;6.80;;;;;;;;;;5051193;28;20114;-69
2023/05/01 03:06:45;;;;;;;15.77;6.32;;;;;;;;;;5056889;28;20112;-68
2023/05/01 03:09:10;;;;;;;14.00;6.43;;;;;;;;;;5046488;28;20025;-68
2023/05/01 03:11:35;;;;;;;13.63;6.68;;;;;;;;;;5049191;28;20017;-69
2023/05/01 03:14:01;;;;;;;12.88;7.10;;;;;;;;;;5051860;28;20503;-68
2023/05/01 03:16:26;;;;;;;14.07;6.57;;;;;;;;;;5053866;28;20051;-68
2023/05/01 03:18:51;;;;;;;14.97;6.60;;;;;;;;;;5054441;28;20024;-68
2023/05/01 03:21:16;;;;;;;13.35;6.95;;;;;;;;;;5051492;28;20037;-69
2023/05/01 03:23:41;;;;;;;13.30;7.00;;;;;;;;;;5056188;28;20100;-68
2023/05/01 03:26:07;;;;;;;15.87;7.63;;;;;;;;;;5052678;28;20025;-68
2023/05/01 03:28:32;;;;;;;15.57;7.63;;;;;;;;;;5052515;28;20373;-69
2023/05/01 03:30:57;;;;;;;14.70;7.60;;;;;;;;;;5049968;28;20027;-68
2023/05/01 03:33:22;;;;;;;18.93;7.87;;;;;;;;;;5049883;28;20021;-69
2023/05/01 03:35:48;;;;;;;17.17;8.18;;;;;;;;;;5052061;28;20032;-69
2023/05/01 03:38:13;;;;;;;17.10;8.70;;;;;;;;;;5052035;28;20370;-68
2023/05/01 03:40:38;;;;;;;16.48;8.25;;;;;;;;;;5055454;28;20037;-68
2023/05/01 03:43:03;;;;;;;19.07;8.77;;;;;;;;;;5050552;28;20021;-69
2023/05/01 03:45:28;;;;;;;17.05;8.88;;;;;;;;;;5051643;28;20602;-69
2023/05/01 03:47:53;;;;;;;19.80;8.93;;;;;;;;;;5051716;28;20025;-69
2023/05/01 03:50:19;;;;;;;20.35;9.55;;;;;;;;;;5051887;28;20024;-70
2023/05/01 03:52:44;;;;;;;15.40;7.88;;;;;;;;;;5049317;28;20438;-68
2023/05/01 03:55:09;;;;;;;15.87;7.63;;;;;;;;;;5051265;28;20072;-68
2023/05/01 03:57:35;;;;;;;16.77;7.85;;;;;;;;;;5056541;28;20025;-67
2023/05/01 04:00:01;;;;;;;14.98;7.45;;;;;;;;;;5046083;28;20033;-68
2023/05/01 04:02:26;;;;;;;16.67;7.53;;;;;;;;;;5045899;28;20027;-67
2023/05/01 04:04:51;;;;;;;15.02;7.72;;;;;;;;;;5044116;28;20029;-68
2023/05/01 04:07:17;;;;;;;17.47;8.53;;;;;;;;;;5047301;28;20517;-68
2023/05/01 04:09:42;;;;;;;16.45;8.00;;;;;;;;;;5050196;28;20020;-68
2023/05/01 04:12:07;;;;;;;15.82;8.32;;;;;;;;;;5048052;28;20028;-68
2023/05/01 04:14:32;;;;;;;14.97;8.10;;;;;;;;;;5047265;28;20032;-68
2023/05/01 04:16:58;;;;;;;17.77;7.97;;;;;;;;;;5045445;28;20064;-68
2023/05/01 04:19:23;;;;;;;16.23;8.02;;;;;;;;;;5039580;28;20021;-68
2023/05/01 04:21:48;;;;;;;15.88;8.15;;;;;;;;;;5049227;28;20283;-67
2023/05/01 04:24:15;;;;;;;14.32;7.70;;;;;;;;;;5050702;28;20495;-67
2023/05/01 04:26:41;;;;;;;16.33;8.60;;;;;;;;;;5051758;28;20028;-67
2023/05/01 04:29:06;;;;;;;16.25;8.38;;;;;;;;;;5051320;28;20014;-67
2023/05/01 04:31:31;;;;;;;16.23;8.45;;;;;;;;;;5054584;28;20028;-66
2023/05/01 04:33:57;;;;;;;19.50;9.70;;;;;;;;;;5043239;28;20083;-67
2023/05/01 04:36:22;;;;;;;21.05;10.15;;;;;;;;;;5051187;28;20515;-66
2023/05/01 04:38:47;;;;;;;21.70;10.77;;;;;;;;;;5041784;28;20067;-66
2023/05/01 04:41:13;;;;;;;19.83;10.02;;;;;;;;;;5052617;28;20467;-67
2023/05/01 04:43:38;;;;;;;23.03;10.30;;;;;;;;;;5048279;28;20029;-66
2023/05/01 04:46:03;;;;;;;18.73;9.77;;;;;;;;;;5053096;28;20017;-67
2023/05/01 04:48:28;;;;;;;18.45;9.70;;;;;;;;;;5056128;28;20017;-68
2023/05/01 04:50:54;;;;;;;20.75;10.00;;;;;;;;;;5049841;28;20024;-67
2023/05/01 04:53:19;;;;;;;17.58;8.48;;;;;;;;;;5042747;28;20422;-67
2023/05/01 04:55:44;;;;;;;19.83;9.32;;;;;;;;;;5043761;28;20013;-68
2023/05/01 04:58:09;;;;;;;19.20;9.70;;;;;;;;;;5049895;28;20044;-67
2023/05/01 05:00:34;;;;;;;20.98;11.02;;;;;;;;;;5051552;28;20027;-67
2023/05/01 05:02:59;;;;;;;18.67;9.80;;;;;;;;;;5050346;28;20025;-67
2023/05/01 05:05:25;;;;;;;20.73;10.50;;;;;;;;;;5054265;28;20017;-68
2023/05/01 05:07:50;;;;;;;22.27;11.23;;;;;;;;;;5050177;28;20468;-68
2023/05/01 05:10:15;;;;;;;19.90;10.17;;;;;;;;;;5051445;28;20462;-68
2023/05/01 05:12:40;;;;;;;18.52;10.02;;;;;;;;;;5058912;28;20021;-68
2023/05/01 05:15:06;;;;;;;22.10;11.38;;;;;;;;;;5051801;28;20396;-69
2023/05/01 05:17:31;;;;;;;22.58;11.07;;;;;;;;;;5051256;28;20029;-69
2023/05/01 05:19:56;;;;;;;22.10;10.60;;;;;;;;;;5045322;28;20369;-68
2023/05/01 05:22:22;;;;;;;20.67;10.70;;;;;;;;;;5055061;28;20021;-68
2023/05/01 05:24:52;;;;;;;21.77;10.93;;;;;;;;;;5045816;28;20031;-68
2023/05/01 05:27:17;;;;;;;19.77;10.50;;;;;;;;;;5043215;28;20047;-69
2023/05/01 05:29:43;;;;;;;20.55;11.15;;;;;;;;;;5055312;28;20406;-68
2023/05/01 05:32:09;;;;;;;21.52;11.55;;;;;;;;;;5050336;28;20021;-68
2023/05/01 05:34:34;;;;;;;22.02;11.43;;;;;;;;;;5048205;28;20112;-69
2023/05/01 05:36:59;;;;;;;21.03;11.97;;;;;;;;;;5049391;28;20045;-68
2023/05/01 05:39:24;;;;;;;23.07;12.67;;;;;;;;;;5057808;28;20468;-67
2023/05/01 05:41:51;;;;;;;20.50;11.53;;;;;;;;;;5050914;28;20016;-68
2023/05/01 05:44:17;;;;;;;23.85;12.35;;;;;;;;;;5044590;28;20021;-68
2023/05/01 05:46:42;;;;;;;23.25;12.00;;;;;;;;;;5049958;28;20081;-68
2023/05/01 05:49:07;;;;;;;23.63;11.88;;;;;;;;;;5050171;28;20032;-68
2023/05/01 05:51:32;;;;;;;22.42;11.60;;;;;;;;;;5044362;28;20017;-68
2023/05/01 05:53:57;;;;;;;20.80;11.23;;;;;;;;;;5050652;28;20672;-68
2023/05/01 05:56:23;;;;;;;24.40;12.33;;;;;;;;;;5044278;28;20457;-68
2023/05/01 05:58:48;;;;;;;22.15;12.40;;;;;;;;;;5050432;28;20100;-68
2023/05/01 06:01:13;;;;;;;19.25;11.77;;;;;;;;;;5056437;28;20029;-67
2023/05/01 06:03:39;;;;;;;21.88;11.88;;;;;;;;;;5047743;28;20029;-68
2023/05/01 06:06:04;;;;;;;21.25;11.80;;;;;;;;;;5050708;28;20021;-67
2023/05/01 06:08:29;;;;;;;21.75;12.45;;;;;;;;;;5052410;28;20036;-67
2023/05/01 06:10:55;;;;;;;24.57;12.70;;;;;;;;;;5055661;28;20025;-67
2023/05/01 06:13:20;;;;;;;22.98;11.82;;;;;;;;;;5058822;28;20024;-68
2023/05/01 06:15:45;;;;;;;22.80;11.70;;;;;;;;;;5061289;28;20099;-68
2023/05/01 06:18:10;;;;;;;21.25;11.10;;;;;;;;;;5055051;28;20066;-67
2023/05/01 06:20:36;;;;;;;21.20;10.83;;;;;;;;;;5059154;28;20031;-68
2023/05/01 06:23:01;;;;;;;21.10;10.93;;;;;;;;;;5048873;28;20025;-68
2023/05/01 06:25:26;;;;;;;20.98;10.88;;;;;;;;;;5061269;28;20108;-68
2023/05/01 06:27:51;;;;;;;21.98;10.90;;;;;;;;;;5056991;28;20147;-68
2023/05/01 06:30:18;;;;;;;23.23;11.23;;;;;;;;;;5058483;28;20365;-68
2023/05/01 06:32:43;;;;;;;20.88;10.15;;;;;;;;;;5043037;28;20482;-67
2023/05/01 06:35:09;;;;;;;20.53;10.27;;;;;;;;;;5054729;28;20274;-68
2023/05/01 06:37:34;;;;;;;20.30;10.33;;;;;;;;;;5051587;28;20033;-68
2023/05/01 06:39:59;;;;;;;18.25;9.52;;;;;;;;;;5058719;28;21025;-68
2023/05/01 06:42:25;;;;;;;20.73;10.70;;;;;;;;;;5044088;28;20496;-68
2023/05/01 06:44:50;;;;;;;20.10;9.88;;;;;;;;;;5058218;28;20015;-68
2023/05/01 06:47:15;;;;;;;20.17;9.70;;;;;;;;;;5053310;28;20025;-67
2023/05/01 06:49:42;;;;;;;17.70;9.52;;;;;;;;;;5057118;28;20023;-67
2023/05/01 06:52:07;;;;;;;;;;;;;;;;;;5050742;28;20036;-68
2023/05/01 06:54:32;;;;;;;17.65;9.40;;;;;;;;;;5058484;28;19917;-68
2023/05/01 06:56:57;;;;;;;17.73;8.53;;;;;;;;;;5051879;28;20385;-68
2023/05/01 06:59:24;;;;;;;16.40;7.55;;;;;;;;;;5060365;28;20018;-68
2023/05/01 07:01:49;;;;;;;;;;;;;;;;;;5046789;28;20021;-68
2023/05/01 07:04:14;;;;;;;15.88;7.43;;;;;;;;;;5056332;28;19923;-68
2023/05/01 07:06:39;;;;;;;11.55;6.22;;;;;;;;;;5056112;28;20037;-68
2023/05/01 07:09:04;;;;;;;13.87;6.07;;;;;;;;;;5051867;28;20425;-68
2023/05/01 07:11:31;;;;;;;13.13;6.82;;;;;;;;;;5052794;28;20463;-68
2023/05/01 07:13:56;;;;;;;14.27;6.50;;;;;;;;;;5042645;28;20559;-68
2023/05/01 07:16:21;;;;;;;12.40;6.47;;;;;;;;;;5053178;28;20025;-68
2023/05/01 07:18:46;;;;;;;13.70;6.20;;;;;;;;;;5050007;28;20049;-68
2023/05/01 07:21:12;;;;;;;14.02;6.53;;;;;;;;;;5049499;28;20025;-68
2023/05/01 07:23:37;;;;;;;11.88;6.40;;;;;;;;;;5047246;28;20086;-68
2023/05/01 07:26:03;;;;;;;13.05;6.05;;;;;;;;;;5051850;28;20017;-67
2023/05/01 07:28:28;;;;;;;12.73;5.90;;;;;;;;;;5052312;28;20081;-67
2023/05/01 07:30:53;;;;;;;10.73;5.57;;;;;;;;;;5044916;28;20024;-67
2023/05/01 07:33:18;;;;;;;12.77;5.63;;;;;;;;;;5050024;28;20487;-67
2023/05/01 07:35:43;;;;;;;12.23;5.23;;;;;;;;;;5056014;28;20031;-67
2023/05/01 07:38:08;;;;;;;13.67;5.33;;;;;;;;;;5054864;28;20024;-66
2023/05/01 07:40:34;;;;;;;12.82;5.38;;;;;;;;;;5053271;28;20049;-67
2023/05/01 07:42:59;;;;;;;11.50;5.27;;;;;;;;;;5054260;28;20029;-69
2023/05/01 07:45:25;;;;;;;10.70;4.78;;;;;;;;;;5054859;28;20368;-67
2023/05/01 07:47:51;;;;;;;11.27;4.55;;;;;;;;;;5053447;28;20429;-67
2023/05/01 07:50:16;;;;;;;10.68;3.80;;;;;;;;;;5051843;28;20028;-67
2023/05/01 07:52:41;;;;;;;8.88;3.80;;;;;;;;;;5052145;28;20284;-67
2023/05/01 07:55:07;;;;;;;9.45;3.80;;;;;;;;;;5051991;28;20451;-67
2023/05/01 07:57:33;;;;;;;10.85;3.97;;;;;;;;;;5051898;28;20021;-68
2023/05/01 07:59:59;;;;;;;7.72;3.50;;;;;;;;;;5048977;28;20064;-68
2023/05/01 08:02:24;;;;;;;7.88;3.65;;;;;;;;;;5043153;28;20033;-68
2023/05/01 08:04:49;;;;;;;10.57;3.90;;;;;;;;;;5051442;28;20055;-67
2023/05/01 08:07:14;;;;;;;7.43;3.40;;;;;;;;;;5051901;28;20025;-67
2023/05/01 08:09:40;;;;;;;10.53;4.00;;;;;;;;;;5056986;28;20059;-67
2023/05/01 08:12:05;;;;;;;8.63;3.88;;;;;;;;;;5050963;28;20017;-68
2023/05/01 08:14:30;;;;;;;9.30;3.50;;;;;;;;;;5048210;28;20112;-70
2023/05/01 08:16:55;;;;;;;9.32;3.58;;;;;;;;;;5052065;28;20393;-66
2023/05/01 08:19:21;;;;;;;8.57;3.90;;;;;;;;;;5058520;28;20021;-67
2023/05/01 08:21:46;;;;;;;7.80;3.63;;;;;;;;;;5051506;28;20105;-67
2023/05/01 08:24:11;;;;;;;6.87;3.37;;;;;;;;;;5047253;28;20500;-66
2023/05/01 08:26:36;;;;;;;10.10;3.57;;;;;;;;;;5049018;28;20021;-67
2023/05/01 08:29:01;;;;;;;10.10;3.90;;;;;;;;;;5051104;28;20013;-67
2023/05/01 08:31:26;;;;;;;8.27;3.33;;;;;;;;;;5050392;28;20013;-66
2023/05/01 08:33:52;;;;;;;7.87;3.50;;;;;;;;;;5054711;28;20028;-66
2023/05/01 08:36:17;;;;;;;8.20;3.28;;;;;;;;;;5044763;28;20056;-66
2023/05/01 08:38:42;;;;;;;8.30;3.30;;;;;;;;;;5052068;28;20477;-66
2023/05/01 08:41:07;;;;;;;11.20;3.63;;;;;;;;;;5050677;28;20020;-66
2023/05/01 08:43:33;;;;;;;7.65;3.40;;;;;;;;;;5053409;28;20515;-66
2023/05/01 08:46:01;;;;;;;9.60;3.95;;;;;;;;;;5052660;28;20028;-66
2023/05/01 08:48:27;;;;;;;8.48;3.50;;;;;;;;;;5049346;28;20025;-66
2023/05/01 08:50:54;;;;;;;7.70;3.50;;;;;;;;;;5053874;28;20032;-67
2023/05/01 08:53:21;;;;;;;11.63;3.90;;;;;;;;;;5041689;28;20112;-66
2023/05/01 08:55:46;;;;;;;8.90;3.25;;;;;;;;;;5049358;28;20100;-67
2023/05/01 08:58:12;;;;;;;8.63;3.45;;;;;;;;;;5046316;28;20088;-66
2023/05/01 09:00:38;;;;;;;11.57;3.58;;;;;;;;;;5049399;28;20028;-66
2023/05/01 09:03:04;;;;;;;9.77;3.65;;;;;;;;;;5047097;28;20021;-65
2023/05/01 09:05:31;;;;;;;10.32;4.07;;;;;;;;;;5050837;28;20033;-66
2023/05/01 09:07:57;;;;;;;7.90;3.60;;;;;;;;;;5049854;28;20132;-65
2023/05/01 09:10:23;;;;;;;7.88;3.40;;;;;;;;;;5051095;28;20013;-66
2023/05/01 09:12:51;;;;;;;9.98;3.72;;;;;;;;;;5051408;28;20028;-65
2023/05/01 09:15:16;;;;;;;8.98;3.70;;;;;;;;;;5049693;28;20561;-67
2023/05/01 09:17:43;;;;;;;8.18;3.45;;;;;;;;;;5055339;28;20039;-68
2023/05/01 09:20:09;;;;;;;9.07;3.58;;;;;;;;;;5049369;28;20027;-65
2023/05/01 09:22:34;;;;;;;7.05;3.40;;;;;;;;;;5051958;28;20395;-65
2023/05/01 09:25:00;;;;;;;9.53;4.10;;;;;;;;;;5050579;28;20028;-66
2023/05/01 09:27:32;;;;;;;8.57;3.72;;;;;;;;;;5049069;28;20021;-66
2023/05/01 09:29:57;;;;;;;10.27;3.72;;;;;;;;;;5048287;28;20021;-65
2023/05/01 09:32:26;;;;;;;9.63;3.58;;;;;;;;;;5048438;28;20024;-66
2023/05/01 09:34:52;;;;;;;9.07;3.33;;;;;;;;;;5042450;28;20036;-66
2023/05/01 09:37:24;;;;;;;8.55;3.58;;;;;;;;;;5053824;28;20033;-66
2023/05/01 09:39:59;;;;;;;7.03;3.30;;;;;;;;;;5046884;28;20033;-65
2023/05/01 09:42:24;;;;;;;9.43;3.70;;;;;;;;;;5046469;28;20028;-65
2023/05/01 09:44:50;;;;;;;10.87;3.97;;;;;;;;;;5058020;28;20377;-65
2023/05/01 09:47:21;;;;;;;7.47;3.43;;;;;;;;;;5071598;28;20024;-66
2023/05/01 09:49:47;;;;;;;7.95;3.47;;;;;;;;;;5065471;28;20028;-66
2023/05/01 09:52:13;;;;;;;7.55;3.47;;;;;;;;;;5056139;28;20033;-65
2023/05/01 09:54:38;;;;;;;8.50;3.22;;;;;;;;;;5051659;28;20055;-65
2023/05/01 09:57:03;;;;;;;8.33;3.30;;;;;;;;;;5038207;28;20060;-66
2023/05/01 09:59:30;;;;;;;9.10;3.17;;;;;;;;;;5053937;28;20032;-66
2023/05/01 10:01:55;;;;;;;9.05;3.33;;;;;;;;;;5060040;28;20505;-66
2023/05/01 10:04:33;;;;;;;7.53;3.40;;;;;;;;;;5058886;28;20017;-66
2023/05/01 10:06:58;;;;;;;;;;;;;;;;;;5062681;28;20812;-65
2023/05/01 10:09:27;;;;;;;7.40;2.80;;;;;;;;;;5060831;28;19990;-66
2023/05/01 10:11:56;;;;;;;5.78;3.03;;;;;;;;;;5052730;28;20025;-65
2023/05/01 10:14:22;;;;;;;7.93;3.15;;;;;;;;;;5044415;28;20090;-65
2023/05/01 10:16:48;;;;;;;8.00;3.03;;;;;;;;;;5058795;28;20024;-64
2023/05/01 10:19:14;;;;;;;9.70;3.20;;;;;;;;;;5054422;28;20016;-66
2023/05/01 10:21:39;;;;;;;7.65;3.22;;;;;;;;;;5048033;28;20028;-66
2023/05/01 10:24:06;;;;;;;7.75;3.40;;;;;;;;;;5053034;28;20017;-66
2023/05/01 10:26:34;;;;;;;6.15;2.70;;;;;;;;;;5051894;28;20090;-66
2023/05/01 10:29:00;;;;;;;7.20;3.10;;;;;;;;;;5053195;28;20071;-66
2023/05/01 10:31:26;;;;;;;7.03;2.85;;;;;;;;;;5059277;28;20033;-66
2023/05/01 10:33:52;;;;;;;7.20;2.83;;;;;;;;;;5060778;28;20431;-65
2023/05/01 10:36:19;;;;;;;7.65;3.03;;;;;;;;;;5056822;28;20051;-66
2023/05/01 10:38:47;;;;;;;7.93;2.92;;;;;;;;;;5049498;28;20485;-65
2023/05/01 10:41:12;;;;;;;6.20;2.42;;;;;;;;;;5053632;28;20017;-65
2023/05/01 10:43:37;;;;;;;6.63;3.17;;;;;;;;;;5052955;28;20021;-67
2023/05/01 10:46:08;;;;;;;8.07;2.58;;;;;;;;;;5056581;28;20036;-65
2023/05/01 10:48:36;;;;;;;5.72;2.45;;;;;;;;;;5055572;28;20377;-66
2023/05/01 10:51:09;;;;;;;9.43;3.03;;;;;;;;;;5053013;28;20373;-65
2023/05/01 10:53:34;;;;;;;6.65;2.95;;;;;;;;;;5045972;28;20029;-64
2023/05/01 10:56:00;;;;;;;6.70;2.90;;;;;;;;;;5052801;28;20507;-65
2023/05/01 10:58:37;;;;;;;7.22;2.75;;;;;;;;;;5057248;28;20454;-66
2023/05/01 11:01:21;;;;;;;8.38;2.47;;;;;;;;;;5043290;28;20440;-67
2023/05/01 11:03:46;;;;;;;6.72;2.70;;;;;;;;;;5053894;28;20088;-67
2023/05/01 11:06:12;;;;;;;7.93;2.72;;;;;;;;;;5049257;28;20104;-67
2023/05/01 11:08:37;;;;;;;7.03;2.70;;;;;;;;;;5056256;28;20033;-66
2023/05/01 11:11:25;;;;;;;8.15;2.90;;;;;;;;;;5051564;28;20476;-67
2023/05/01 11:13:57;;;;;;;5.80;2.50;;;;;;;;;;5052453;28;20036;-67
2023/05/01 11:16:45;;;;;;;6.63;2.40;;;;;;;;;;5044240;28;20480;-65
2023/05/01 11:19:19;;;;;;;6.28;2.75;;;;;;;;;;5053195;28;20132;-66
2023/05/01 11:21:44;;;;;;;6.85;2.60;;;;;;;;;;5044727;28;20017;-66
2023/05/01 11:24:10;;;;;;;6.72;2.72;;;;;;;;;;5049725;28;20052;-66
2023/05/01 11:26:36;;;;;;;5.68;2.85;;;;;;;;;;5047585;28;20498;-66
2023/05/01 11:29:03;;;;;;;;;;;;;;;;;;5053375;28;20032;-66
2023/05/01 11:31:28;;;;;;;6.43;2.65;;;;;;;;;;5050825;28;19904;-66
2023/05/01 11:34:00;;;;;;;7.77;2.70;;;;;;;;;;5057310;28;20047;-66
2023/05/01 11:36:28;;;;;;;6.68;2.40;;;;;;;;;;5052304;28;20102;-67
2023/05/01 11:38:57;;;;;;;8.68;2.80;;;;;;;;;;5046915;28;20025;-69
2023/05/01 11:41:24;;;;;;;7.50;2.60;;;;;;;;;;5047673;28;20028;-67
2023/05/01 11:43:53;;;;;;;6.60;3.05;;;;;;;;;;5055065;28;20017;-67
2023/05/01 11:46:31;;;;;;;6.60;2.83;;;;;;;;;;5051737;28;20029;-67
2023/05/01 11:48:57;;;;;;;6.93;2.53;;;;;;;;;;5050532;28;20677;-66
2023/05/01 11:51:23;;;;;;;7.65;2.85;;;;;;;;;;5051592;28;20025;-67
2023/05/01 11:53:48;;;;;;;;;;;;;;;;;;5048602;28;20021;-67
2023/05/01 11:56:17;;;;;;;8.30;2.85;;;;;;;;;;5050124;28;19921;-66
2023/05/01 11:58:42;;;;;;;7.78;2.80;;;;;;;;;;5055257;28;20070;-66
2023/05/01 12:01:08;;;;;;;6.80;2.67;;;;;;;;;;5051397;28;20029;-67
2023/05/01 12:03:40;;;;;;;7.13;2.70;;;;;;;;;;5059244;28;20088;-66
2023/05/01 12:06:05;;;;;;;;;;;;;;;;;;5045928;28;20024;-67
2023/05/01 12:08:30;;;;;;;6.80;2.20;;;;;;;;;;5046552;28;19913;-67
2023/05/01 12:10:56;;;;;;;6.93;2.30;;;;;;;;;;5046643;28;20032;-66
2023/05/01 12:13:21;;;;;;;8.13;2.47;;;;;;;;;;5051848;28;20873;-66
2023/05/01 12:15:49;;;;;;;5.78;2.22;;;;;;;;;;5045512;28;20021;-66
2023/05/01 12:18:15;;;;;;;4.75;2.17;;;;;;;;;;5048636;28;20017;-65
2023/05/01 12:20:42;;;;;;;4.78;2.17;;;;;;;;;;5037113;28;20108;-67
2023/05/01 12:23:09;;;;;;;5.65;2.10;;;;;;;;;;5045689;28;21938;-66
2023/05/01 12:25:34;;;;;;;5.82;2.20;;;;;;;;;;5041932;28;20590;-69
2023/05/01 12:28:08;;;;;;;6.10;2.40;;;;;;;;;;5040907;28;20024;-65
2023/05/01 12:30:33;;;;;;;5.07;1.90;;;;;;;;;;5037997;28;20026;-66
2023/05/01 12:32:59;;;;;;;6.60;2.10;;;;;;;;;;5040571;28;20027;-67
2023/05/01 12:35:30;;;;;;;5.87;1.93;;;;;;;;;;5055954;28;20028;-66
2023/05/01 12:37:56;;;;;;;5.10;2.00;;;;;;;;;;5041364;28;20025;-65
2023/05/01 12:40:22;;;;;;;6.20;2.10;;;;;;;;;;5047340;28;20028;-66
2023/05/01 12:42:56;;;;;;;6.90;2.07;;;;;;;;;;5043245;28;20013;-65
2023/05/01 12:45:22;;;;;;;5.93;2.00;;;;;;;;;;5034110;28;20468;-66
2023/05/01 12:47:47;;;;;;;5.78;1.83;;;;;;;;;;5041324;28;20023;-67
2023/05/01 12:50:12;;;;;;;5.50;1.93;;;;;;;;;;5040779;28;20112;-66
2023/05/01 12:52:38;;;;;;;5.10;1.73;;;;;;;;;;5048790;28;20052;-66
2023/05/01 12:55:04;;;;;;;5.43;1.53;;;;;;;;;;5036796;28;20151;-66
2023/05/01 12:57:29;;;;;;;6.57;1.90;;;;;;;;;;5058050;28;20376;-67
2023/05/01 13:00:00;;;;;;;8.57;1.90;;;;;;;;;;5056156;28;20024;-66
2023/05/01 13:02:28;;;;;;;5.68;2.05;;;;;;;;;;5048201;28;20051;-67
2023/05/01 13:05:03;;;;;;;4.80;1.58;;;;;;;;;;5056459;28;20067;-67
2023/05/01 13:07:29;;;;;;;5.82;1.75;;;;;;;;;;5052305;28;20441;-67
2023/05/01 13:09:56;;;;;;;4.63;1.60;;;;;;;;;;5050887;28;20020;-67
2023/05/01 13:12:21;;;;;;;5.28;1.83;;;;;;;;;;5041385;28;20508;-66
2023/05/01 13:14:46;;;;;;;4.82;1.60;;;;;;;;;;5038280;28;20029;-66
2023/05/01 13:17:20;;;;;;;5.53;1.80;;;;;;;;;;5041918;28;20082;-67
2023/05/01 13:19:51;;;;;;;4.40;1.70;;;;;;;;;;5051872;28;20037;-67
2023/05/01 13:22:17;;;;;;;4.45;1.70;;;;;;;;;;5050143;28;20456;-65
2023/05/01 13:24:45;;;;;;;6.03;1.73;;;;;;;;;;5045481;28;20029;-67
2023/05/01 13:27:11;;;;;;;5.32;1.60;;;;;;;;;;5041951;28;20031;-66
2023/05/01 13:29:41;;;;;;;4.93;1.65;;;;;;;;;;5065427;28;20020;-67
2023/05/01 13:32:08;;;;;;;5.45;1.70;;;;;;;;;;5043001;28;20496;-66
2023/05/01 13:34:35;;;;;;;4.85;1.50;;;;;;;;;;5047902;28;20029;-66
2023/05/01 13:37:00;;;;;;;5.20;1.63;;;;;;;;;;5044188;28;20055;-66
2023/05/01 13:39:25;;;;;;;5.47;1.70;;;;;;;;;;5044548;28;20053;-66
2023/05/01 13:41:51;;;;;;;6.83;1.87;;;;;;;;;;5043734;28;20029;-67
2023/05/01 13:44:17;;;;;;;6.30;1.85;;;;;;;;;;5046120;28;20025;-67
2023/05/01 13:46:43;;;;;;;4.05;1.40;;;;;;;;;;5041187;28;20082;-66
2023/05/01 13:49:08;;;;;;;5.22;1.70;;;;;;;;;;5035734;28;20072;-67
2023/05/01 13:51:36;;;;;;;8.63;1.90;;;;;;;;;;5046199;28;20045;-68
2023/05/01 13:54:02;;;;;;;4.90;1.60;;;;;;;;;;5047824;28;20527;-65
2023/05/01 13:56:27;;;;;;;4.72;1.60;;;;;;;;;;5054916;28;20029;-68
2023/05/01 13:58:52;;;;;;;5.87;1.67;;;;;;;;;;5045522;28;20500;-66
2023/05/01 14:01:19;;;;;;;5.50;1.60;;;;;;;;;;5048617;28;20035;-66
2023/05/01 14:03:44;;;;;;;5.32;1.58;;;;;;;;;;5046505;28;20412;-67
2023/05/01 14:06:11;;;;;;;6.85;1.80;;;;;;;;;;5046613;28;20029;-67
2023/05/01 14:08:37;;;;;;;6.03;1.50;;;;;;;;;;5047593;28;20047;-68
2023/05/01 14:11:03;;;;;;;6.80;1.73;;;;;;;;;;5050559;28;20103;-67
2023/05/01 14:13:28;;;;;;;;;;;;;;;;;;5039748;28;20074;-68
2023/05/01 14:15:53;;;;;;;4.20;1.43;;;;;;;;;;5038921;28;20319;-66
2023/05/01 14:18:19;;;;;;;5.17;1.60;;;;;;;;;;5039416;28;20021;-67
2023/05/01 14:20:46;;;;;;;6.47;2.05;;;;;;;;;;5043771;28;20047;-65
2023/05/01 14:23:12;;;;;;;3.72;1.40;;;;;;;;;;5044885;28;20025;-66
2023/05/01 14:25:38;;;;;;;4.72;1.60;;;;;;;;;;5041024;28;20026;-66
2023/05/01 14:28:11;;;;;;;4.67;1.60;;;;;;;;;;5046420;28;20017;-67
2023/05/01 14:30:37;;;;;;;6.05;1.70;;;;;;;;;;5047449;28;20013;-66
2023/05/01 14:33:02;;;;;;;;;;;;;;;;;;5048893;28;20103;-66